»·PEaware :: N7428R KTIW-KHQM

N7428R :: KTIW-KHQM

FLIGHT INFORMATION

Flight Status: Arrived
Operator: Privately registered:
United States
More flights under this callsign
Pilot: William K. (19718)
Aircraft: PIPER PA-28 CHEROKEE ARCHER
(P28A)
More flights by this aircraft type
Origin: KTIW Tacoma Narrows
United States
Destination: KHQM Bowerman
United States
More flights between these airports :: More routes between these airports
Route: NARRO1 OLM HQM
File this flight plan on PilotEdge
Remarks:
Altitude:
(Current/Filed)
4,000ft
Speed:
(Current/Filed)
100kts
Departed: 19-Nov-20 09:09 AM
Arrived: 19-Nov-20 10:29 AM
Distance/Time
Traveled:
58nm/1:20
Distance/Time
To Go:
Arrived

Flight Plot

Page will automatically refresh every two minutes.

Flight plan parsing failed; only flown route is shown


Map Options




Map Legend


Flown Route
Filed Route
Departure Airport
Arrival Airport
Navaid (VOR, NDB)
Fix

Horizontal Profiles

Position Reports

Time Latitude Longitude Heading Altitude Ground
Speed
19-Nov-20 08:39 47.272439 -122.574682 275 293ft 0kts
19-Nov-20 08:40 47.272439 -122.574682 275 293ft 0kts
19-Nov-20 08:41 47.272439 -122.574683 275 293ft 0kts
19-Nov-20 08:42 47.272439 -122.574683 275 293ft 0kts
19-Nov-20 08:43 47.272439 -122.574683 275 293ft 0kts
19-Nov-20 08:44 47.272439 -122.574683 275 293ft 0kts
19-Nov-20 08:45 47.272439 -122.574683 275 293ft 0kts
19-Nov-20 08:46 47.272439 -122.574683 275 293ft 0kts
19-Nov-20 08:47 47.272439 -122.574683 275 293ft 0kts
19-Nov-20 08:48 47.272439 -122.574683 275 293ft 0kts
19-Nov-20 08:49 47.272439 -122.574683 275 293ft 0kts
19-Nov-20 08:50 47.272439 -122.574683 275 293ft 0kts
19-Nov-20 08:51 47.272439 -122.574683 275 293ft 0kts
19-Nov-20 08:52 47.272439 -122.574683 275 293ft 0kts
19-Nov-20 08:53 47.272439 -122.574683 275 293ft 0kts
19-Nov-20 08:54 47.272439 -122.574683 275 293ft 0kts
19-Nov-20 08:55 47.272439 -122.574683 275 293ft 0kts
19-Nov-20 08:56 47.272439 -122.574683 275 293ft 0kts
19-Nov-20 08:57 47.272439 -122.574683 275 293ft 0kts
19-Nov-20 08:58 47.272621 -122.574835 16 293ft 7kts
19-Nov-20 08:59 47.274811 -122.575527 186 290ft 0kts
19-Nov-20 09:00 47.274811 -122.575527 186 290ft 0kts
19-Nov-20 09:01 47.274811 -122.575527 186 290ft 0kts
19-Nov-20 09:02 47.274811 -122.575527 186 290ft 0kts
19-Nov-20 09:03 47.274811 -122.575527 186 290ft 0kts
19-Nov-20 09:04 47.274548 -122.575788 271 291ft 0kts
19-Nov-20 09:05 47.274548 -122.575788 271 291ft 0kts
19-Nov-20 09:06 47.274548 -122.575788 271 291ft 0kts
19-Nov-20 09:07 47.274128 -122.576985 186 293ft 20kts
19-Nov-20 09:08 47.259049 -122.579224 185 997ft 64kts
19-Nov-20 09:09 47.247575 -122.589968 268 1912ft 63kts
19-Nov-20 09:10 47.249627 -122.616416 269 2712ft 64kts
19-Nov-20 09:11 47.250640 -122.643055 263 3475ft 63kts
19-Nov-20 09:12 47.239321 -122.659568 222 4069ft 61kts
19-Nov-20 09:13 47.225233 -122.683252 218 4033ft 90kts
19-Nov-20 09:14 47.201366 -122.694165 203 4051ft 85kts
19-Nov-20 09:16 47.179711 -122.712832 216 3971ft 93kts
19-Nov-20 09:17 47.160190 -122.735557 211 4057ft 85kts
19-Nov-20 09:18 47.139673 -122.754937 212 4084ft 91kts
19-Nov-20 09:19 47.117888 -122.773221 200 4113ft 90kts
19-Nov-20 09:20 47.095300 -122.790315 215 4111ft 93kts
19-Nov-20 09:21 47.074882 -122.813435 210 4130ft 92kts
19-Nov-20 09:22 47.052694 -122.833367 196 4141ft 92kts
19-Nov-20 09:23 47.028933 -122.849803 213 4154ft 92kts
19-Nov-20 09:24 47.007115 -122.870647 214 4155ft 93kts
19-Nov-20 09:25 46.984894 -122.890823 210 4160ft 91kts
19-Nov-20 09:26 46.972224 -122.919961 265 4163ft 95kts
19-Nov-20 09:27 46.971633 -122.959834 268 4081ft 98kts
19-Nov-20 09:28 46.972618 -123.000030 265 4026ft 98kts
19-Nov-20 09:29 46.972724 -123.040128 264 3991ft 97kts
19-Nov-20 09:29 46.971228 -123.072810 263 4057ft 90kts
19-Nov-20 09:31 46.971576 -123.117050 260 4193ft 89kts
19-Nov-20 09:32 46.971656 -123.157347 261 4150ft 95kts
19-Nov-20 09:33 46.967687 -123.196713 256 4148ft 94kts
19-Nov-20 09:34 46.963487 -123.235985 257 3960ft 98kts
19-Nov-20 09:35 46.963046 -123.276801 264 3893ft 90kts
19-Nov-20 09:36 46.964422 -123.314403 267 3946ft 87kts
19-Nov-20 09:36 46.964973 -123.345477 266 3971ft 88kts
19-Nov-20 09:38 46.967129 -123.388526 268 4007ft 89kts
19-Nov-20 09:38 46.968806 -123.419023 270 4027ft 89kts
19-Nov-20 09:40 46.986291 -123.456204 304 3702ft 96kts
19-Nov-20 09:40 47.000314 -123.482178 305 3276ft 97kts
19-Nov-20 09:41 47.016571 -123.516787 293 2527ft 101kts
19-Nov-20 09:42 47.015960 -123.556644 256 2214ft 91kts
19-Nov-20 09:43 47.014317 -123.595781 267 2185ft 87kts
19-Nov-20 09:44 47.009221 -123.630782 260 2280ft 84kts
19-Nov-20 09:45 47.002843 -123.665492 258 2346ft 87kts
19-Nov-20 09:46 46.998845 -123.703016 263 2319ft 95kts
19-Nov-20 09:47 46.994552 -123.743061 259 2228ft 94kts
19-Nov-20 09:48 46.990570 -123.781958 268 2177ft 89kts
19-Nov-20 09:49 46.985117 -123.820054 264 1790ft 91kts
19-Nov-20 09:50 46.980950 -123.859210 260 1202ft 95kts
19-Nov-20 09:51 46.976140 -123.898884 264 456ft 91kts
19-Nov-20 09:52 46.971415 -123.932374 258 379ft 75kts
19-Nov-20 09:53 46.968865 -123.965671 267 1254ft 82kts
19-Nov-20 09:54 46.963978 -123.999568 258 2129ft 85kts
19-Nov-20 09:55 46.959663 -124.036387 266 2574ft 111kts
19-Nov-20 09:56 46.955204 -124.083207 262 2278ft 105kts
19-Nov-20 09:57 46.950389 -124.122744 270 2421ft 90kts
19-Nov-20 09:58 46.944695 -124.159765 256 2522ft 92kts
19-Nov-20 09:59 46.939462 -124.197245 250 2630ft 92kts
19-Nov-20 10:00 46.928013 -124.190638 31 2668ft 75kts
19-Nov-20 10:01 46.946351 -124.172665 75 2539ft 87kts
19-Nov-20 10:02 46.946734 -124.138191 111 2524ft 87kts
19-Nov-20 10:03 46.927925 -124.151256 256 2475ft 100kts
19-Nov-20 10:04 46.920390 -124.191505 257 2423ft 96kts
19-Nov-20 10:05 46.929448 -124.216809 23 2439ft 81kts
19-Nov-20 10:06 46.941627 -124.188080 68 2486ft 83kts
19-Nov-20 10:07 46.946629 -124.153999 71 2524ft 85kts
19-Nov-20 10:08 46.936488 -124.129617 203 2537ft 90kts
19-Nov-20 10:09 46.928265 -124.163100 265 2563ft 85kts
19-Nov-20 10:10 46.938591 -124.183661 31 2503ft 87kts
19-Nov-20 10:11 46.947012 -124.150361 71 2536ft 88kts
19-Nov-20 10:12 46.932404 -124.131602 215 2526ft 91kts
19-Nov-20 10:13 46.926243 -124.167453 265 2526ft 87kts
19-Nov-20 10:14 46.928613 -124.202088 334 2512ft 84kts
19-Nov-20 10:15 46.942243 -124.179869 76 2481ft 91kts
19-Nov-20 10:16 46.947506 -124.143392 81 2482ft 90kts
19-Nov-20 10:17 46.928288 -124.135003 237 2451ft 90kts
19-Nov-20 10:18 46.924150 -124.171657 266 2463ft 86kts
19-Nov-20 10:19 46.934869 -124.194385 28 2420ft 87kts
19-Nov-20 10:20 46.944173 -124.161903 66 2446ft 87kts
19-Nov-20 10:21 46.952361 -124.128392 70 2002ft 88kts
19-Nov-20 10:22 46.954422 -124.090362 80 1044ft 93kts
19-Nov-20 10:23 46.959904 -124.053982 77 688ft 81kts
19-Nov-20 10:24 46.960867 -124.023590 82 710ft 64kts
19-Nov-20 10:25 46.963547 -123.997703 79 671ft 63kts
19-Nov-20 10:26 46.966791 -123.971617 78 376ft 63kts
19-Nov-20 10:27 46.969841 -123.947619 81 61ft 55kts
19-Nov-20 10:28 46.971548 -123.939984 350 16ft 0kts
19-Nov-20 10:29 46.971548 -123.939984 350 16ft 0kts
19-Nov-20 10:30 46.971547 -123.939984 350 16ft 0kts
19-Nov-20 10:31 46.971547 -123.939984 350 16ft 0kts
19-Nov-20 10:32 46.971547 -123.939984 350 16ft 0kts
19-Nov-20 10:33 46.971547 -123.939984 350 16ft 0kts
19-Nov-20 10:34 46.971547 -123.939984 350 16ft 0kts
19-Nov-20 10:35 46.971547 -123.939984 350 16ft 0kts
19-Nov-20 10:36 46.971547 -123.939984 350 16ft 0kts
19-Nov-20 10:37 46.971547 -123.939984 350 16ft 0kts
19-Nov-20 10:38 46.971547 -123.939984 350 16ft 0kts
19-Nov-20 10:39 46.971547 -123.939984 350 16ft 0kts
19-Nov-20 10:40 46.971547 -123.939984 350 16ft 0kts
19-Nov-20 10:41 46.971547 -123.939984 350 16ft 0kts
19-Nov-20 10:42 46.971547 -123.939984 350 16ft 0kts

Navigation Log

Ident Type
Flight plan parsing failed, navigation log unavailable